Terminal Aerodrome Forecast
Issued by NWS Flagstaff, AZ

Home | Current Version | Previous Version | Text Only | Print | Product List | Glossary On
Versions: 1 2 3 4 5 6 7 8 9 10 11 12 13 14 15 16 17 18
000
FTUS45 KFGZ 311800 AAA
TAFFLG
TAF AMD
KFLG 311817Z 3118/0118 VRB05KT P6SM VCSH SCT006 BKN025
     FM010200 VRB03KT P6SM SCT004 SCT025
     FM010300 VRB03KT 1SM BR OVC004
     FM011600 VRB03KT P6SM VCFG SCT004=

USA.gov is the U.S. government's official web portal to all federal, state and local government web resources and services.